Masonic Park, Colorado
Current Conditions -  °F | °C
As of 6:25 AM on Wednesday 22 Oct 2014 (Local Time) from KRCV Reporting Station
Clear Clear  
Wind Chill: 34°   Ceiling: Unl
Heat Index: 37°   Visibility: 10mi
Dew Point: 32°   Wind: 5mph
Humidity: 81%   Direction: 10°N
Pressure: 30.24"   Gusts: NA
Location:  37.6617°N, 106.617°W
Report Text: KRCV 221225Z AUTO 01004KT 10SM CLR 03/00 A3024 RMK AO2 LTG DSNT NW T00300000
Loading
Personal Weather Stations






























Interactive Weather Map New forecast layout! Learn more

10-Day Weather Forecast

Advertisements
Track Severe Weather on mobile